Time;durP1;ratioP1;P1;durP2;ratioP2;P2;SDS_P1;SDS_P2;PMS_P1;PMS_P2;Temp;Humidity;BMP_temperature;BMP_pressure;BME280_temperature;BME280_humidity;BME280_pressure;Samples;Min_cycle;Max_cycle;Signal;HPM_P1;HPM_P2
2021/07/14 00:06:35;;;;;;;16.60;15.03;;;;;;;22.91;63.69;98893.25;530266;1093;116944;-66
2021/07/14 00:27:08;;;;;;;14.33;12.93;;;;;;;22.75;64.28;98889.02;524095;1092;116295;-66
2021/07/14 00:37:18;;;;;;;16.00;14.50;;;;;;;22.70;64.29;98889.60;531025;1093;116411;-66
2021/07/14 00:47:29;;;;;;;15.23;13.93;;;;;;;22.51;64.64;98886.60;530999;1092;116139;-66
2021/07/14 00:57:36;;;;;;;15.27;13.83;;;;;;;22.36;65.10;98896.50;530296;1093;117829;-66
2021/07/14 01:07:50;;;;;;;15.27;13.83;;;;;;;22.33;65.34;98905.73;530924;1093;116356;-65
2021/07/14 01:18:03;;;;;;;15.10;13.77;;;;;;;22.39;65.48;98888.92;530219;1093;117537;-65
2021/07/14 01:28:10;;;;;;;14.97;13.77;;;;;;;22.32;65.55;98904.08;530981;1093;116305;-65
2021/07/14 01:38:20;;;;;;;16.37;14.93;;;;;;;22.18;66.03;98896.95;530970;1093;116726;-67
2021/07/14 01:48:27;;;;;;;15.07;13.57;;;;;;;22.06;66.18;98883.29;530251;1093;116596;-65
2021/07/14 01:58:35;;;;;;;15.47;14.07;;;;;;;22.09;66.55;98885.57;530130;1093;115865;-64
2021/07/14 02:08:42;;;;;;;17.07;15.37;;;;;;;22.10;66.31;98876.53;531068;1093;116131;-66
2021/07/14 02:18:54;;;;;;;16.20;14.77;;;;;;;22.09;66.75;98873.02;530255;1092;117377;-66
2021/07/14 02:29:01;;;;;;;18.20;16.50;;;;;;;21.95;67.34;98880.10;531006;1092;116248;-66
2021/07/14 02:39:09;;;;;;;16.98;15.38;;;;;;;21.88;67.77;98870.36;529950;1092;117236;-67
2021/07/14 02:49:18;;;;;;;;;;;;;;;21.96;68.01;98881.75;530407;1092;116432;-67
2021/07/14 02:59:33;;;;;;;17.55;15.08;;;;;;;22.11;68.10;98881.70;531142;1092;104323;-66
2021/07/14 03:09:42;;;;;;;18.03;16.33;;;;;;;22.28;67.87;98886.77;530282;1092;116383;-66
2021/07/14 03:19:52;;;;;;;17.77;16.20;;;;;;;22.43;67.90;98881.35;530945;1092;116999;-67
2021/07/14 03:29:59;;;;;;;20.77;18.80;;;;;;;22.63;67.58;98889.55;530284;1092;116982;-66
2021/07/14 03:40:10;;;;;;;18.48;16.55;;;;;;;23.05;67.28;98894.16;530840;1092;117969;-65
2021/07/14 03:50:17;;;;;;;17.57;15.87;;;;;;;23.59;66.26;98876.52;531004;1092;117826;-66
2021/07/14 04:00:24;;;;;;;18.67;16.97;;;;;;;24.25;65.21;98873.38;530259;1092;117370;-66
2021/07/14 04:10:31;;;;;;;18.50;16.80;;;;;;;25.12;63.71;98872.46;516219;1093;116744;-65
2021/07/14 04:20:37;;;;;;;16.33;14.87;;;;;;;26.37;61.86;98874.92;522819;1092;116196;-66
2021/07/14 04:30:44;;;;;;;17.93;16.07;;;;;;;27.86;58.80;98888.46;530216;1092;117844;-65
2021/07/14 04:40:50;;;;;;;14.73;13.57;;;;;;;28.98;56.88;98884.44;531027;1092;117035;-66
2021/07/14 04:50:57;;;;;;;15.50;14.00;;;;;;;30.45;53.77;98883.14;529989;1092;116393;-65
2021/07/14 05:01:03;;;;;;;15.75;14.43;;;;;;;32.07;51.09;98878.66;530813;1093;117708;-65
2021/07/14 05:11:10;;;;;;;15.05;13.50;;;;;;;33.54;47.48;98876.56;529875;1093;117634;-65
2021/07/14 05:21:16;;;;;;;14.55;13.45;;;;;;;35.01;45.27;98870.81;529604;1092;116798;-64
2021/07/14 05:31:23;;;;;;;15.45;13.10;;;;;;;35.78;42.09;98885.22;531014;1092;116162;-65
2021/07/14 05:41:29;;;;;;;14.38;13.10;;;;;;;38.57;39.77;98885.74;530995;1092;116541;-65
2021/07/14 05:51:36;;;;;;;14.25;12.28;;;;;;;39.97;36.11;98874.60;529608;1092;117249;-65
2021/07/14 06:01:42;;;;;;;13.40;12.20;;;;;;;41.39;34.05;98877.67;530978;1093;117285;-65
2021/07/14 06:11:48;;;;;;;12.48;11.35;;;;;;;42.46;31.89;98872.88;531041;1092;117466;-65
2021/07/14 06:21:55;;;;;;;11.10;10.05;;;;;;;42.85;30.96;98890.25;530875;1093;116489;-65
2021/07/14 06:32:01;;;;;;;11.63;10.83;;;;;;;44.15;29.19;98882.48;525146;1093;117953;-64
2021/07/14 06:42:09;;;;;;;13.40;12.23;;;;;;;44.10;27.83;98866.95;522738;1092;117057;-63
2021/07/14 06:52:16;;;;;;;12.30;11.18;;;;;;;42.77;28.42;98880.06;530609;1092;116204;-65
2021/07/14 07:02:22;;;;;;;13.03;11.73;;;;;;;43.42;27.83;98879.09;530983;1092;116842;-69
2021/07/14 07:12:29;;;;;;;13.03;11.93;;;;;;;45.17;26.57;98887.45;530271;1092;116551;-69
2021/07/14 07:22:35;;;;;;;13.80;12.80;;;;;;;45.74;25.57;98883.98;512738;1093;116130;-68
2021/07/14 07:32:42;;;;;;;13.95;12.50;;;;;;;46.51;24.35;98906.23;523284;1092;116558;-62
2021/07/14 07:42:49;;;;;;;13.68;12.55;;;;;;;47.27;23.68;98911.64;530085;1092;118981;-60
2021/07/14 07:52:55;;;;;;;12.27;11.10;;;;;;;48.56;22.51;98912.98;530816;1092;116662;-60
2021/07/14 08:03:02;;;;;;;13.10;11.97;;;;;;;45.94;22.98;98909.90;530177;1092;117003;-60
2021/07/14 08:13:08;;;;;;;13.87;12.67;;;;;;;43.35;25.51;98912.77;530950;1092;116801;-60
2021/07/14 08:23:15;;;;;;;15.10;13.77;;;;;;;41.93;26.97;98908.80;530952;1092;116690;-60
2021/07/14 08:33:22;;;;;;;13.10;12.10;;;;;;;41.08;27.94;98906.08;530228;1092;117823;-60
2021/07/14 08:43:31;;;;;;;14.90;13.70;;;;;;;40.14;28.84;98890.39;530772;1093;117674;-59
2021/07/14 08:53:38;;;;;;;15.68;12.75;;;;;;;40.04;30.01;98906.01;530939;1092;116660;-59
2021/07/14 09:03:44;;;;;;;14.10;12.73;;;;;;;40.07;29.91;98902.66;529652;1092;116913;-59
2021/07/14 09:13:52;;;;;;;12.95;11.63;;;;;;;39.57;29.89;98906.27;530620;1092;118489;-62
2021/07/14 09:23:58;;;;;;;12.55;11.25;;;;;;;39.31;30.06;98922.45;529765;1092;118334;-61
2021/07/14 09:34:05;;;;;;;13.65;12.25;;;;;;;39.04;30.29;98919.42;530957;1092;117009;-61
2021/07/14 09:44:24;;;;;;;11.98;10.90;;;;;;;39.14;29.96;98918.42;530935;1092;118372;-61
2021/07/14 09:54:31;;;;;;;12.50;11.30;;;;;;;39.22;30.32;98917.68;530250;1093;116319;-60
2021/07/14 10:04:40;;;;;;;10.55;9.55;;;;;;;39.20;28.86;98921.88;530979;1093;117466;-60
2021/07/14 10:14:46;;;;;;;9.77;8.83;;;;;;;38.90;28.66;98924.07;529760;1093;115578;-60
2021/07/14 10:24:54;;;;;;;13.50;10.23;;;;;;;38.86;29.50;98925.81;530874;1093;116027;-60
2021/07/14 10:35:00;;;;;;;11.30;10.00;;;;;;;38.73;29.30;98930.98;516703;1093;117121;-61
2021/07/14 10:45:09;;;;;;;13.65;12.45;;;;;;;38.63;29.13;98929.22;530251;1092;117927;-60
2021/07/14 10:55:21;;;;;;;11.05;9.95;;;;;;;38.41;29.81;98938.89;530906;1093;117793;-59
2021/07/14 11:05:45;;;;;;;12.57;11.40;;;;;;;38.39;30.20;98938.38;530927;1093;117597;-60
2021/07/14 11:15:52;;;;;;;13.18;12.00;;;;;;;38.73;29.72;98932.89;530555;1092;116293;-60
2021/07/14 11:26:00;;;;;;;12.68;11.38;;;;;;;38.80;29.75;98925.09;530734;1092;117842;-60
2021/07/14 11:36:10;;;;;;;14.60;12.50;;;;;;;37.58;31.06;98961.23;529822;1092;116763;-60
2021/07/14 11:46:18;;;;;;;15.50;14.00;;;;;;;35.02;34.27;98967.89;530978;1092;116924;-60
2021/07/14 11:56:37;;;;;;;15.33;13.70;;;;;;;33.27;37.24;98999.95;530991;1092;117393;-59
2021/07/14 12:06:45;;;;;;;15.13;10.50;;;;;;;32.61;37.37;99045.39;521403;1093;167484;-61
2021/07/14 12:16:53;;;;;;;17.27;11.17;;;;;;;32.39;38.20;99013.67;530713;1092;116440;-61
2021/07/14 12:27:02;;;;;;;15.57;12.87;;;;;;;32.07;40.57;99025.27;530184;1093;117204;-61
2021/07/14 12:37:09;;;;;;;16.60;13.30;;;;;;;32.19;41.58;99006.09;530916;1092;117282;-61
2021/07/14 12:47:18;;;;;;;17.53;13.73;;;;;;;32.09;42.08;99003.27;530963;1092;117470;-61
2021/07/14 12:57:30;;;;;;;16.23;12.93;;;;;;;32.00;42.38;99011.05;530249;1092;118137;-61
2021/07/14 13:07:39;;;;;;;12.75;11.60;;;;;;;32.01;42.17;99001.84;530879;1093;117187;-62
2021/07/14 13:17:46;;;;;;;15.10;13.70;;;;;;;31.72;42.77;98991.98;530975;1092;117036;-63
2021/07/14 13:27:54;;;;;;;14.48;12.08;;;;;;;31.80;42.38;98958.21;530800;1091;116885;-64
2021/07/14 13:38:00;;;;;;;12.83;11.57;;;;;;;31.90;42.08;98972.94;531004;1092;117779;-65
2021/07/14 13:48:07;;;;;;;15.28;12.40;;;;;;;32.06;42.69;98973.92;529800;1092;117825;-65
2021/07/14 13:58:14;;;;;;;16.50;11.43;;;;;;;32.52;41.90;98977.09;530918;1092;116656;-68
2021/07/14 14:08:24;;;;;;;11.77;10.77;;;;;;;32.55;42.01;98981.20;520835;1092;116101;-68
2021/07/14 14:18:30;;;;;;;13.05;11.88;;;;;;;32.53;41.89;98983.37;512326;1093;117402;-68
2021/07/14 14:28:35;;;;;;;;;;;;;;;32.62;42.13;98975.55;521617;1093;117463;-67
2021/07/14 14:38:41;;;;;;;16.50;13.27;;;;;;;32.40;42.09;98960.98;531266;1092;102854;-67
2021/07/14 14:48:48;;;;;;;19.00;13.48;;;;;;;32.22;42.69;98959.44;530320;1092;118341;-67
2021/07/14 14:58:55;;;;;;;18.57;13.47;;;;;;;32.55;42.51;98944.00;530955;1092;117230;-67
2021/07/14 15:09:00;;;;;;;;;;;;;;;32.48;42.32;98937.13;519410;1093;116724;-66
2021/07/14 15:19:06;;;;;;;16.83;13.30;;;;;;;32.34;42.70;98925.86;512700;1092;102732;-66
2021/07/14 15:29:14;;;;;;;14.43;13.08;;;;;;;31.70;43.63;98914.64;513510;1092;10001218;-69
2021/07/14 15:39:20;;;;;;;18.53;16.75;;;;;;;31.41;44.38;98898.58;530164;1093;117224;-67
2021/07/14 15:49:26;;;;;;;12.65;11.60;;;;;;;31.38;43.96;98905.31;530989;1091;117638;-66
2021/07/14 15:59:33;;;;;;;15.03;13.48;;;;;;;31.10;44.87;98884.59;530956;1093;116603;-70
2021/07/14 16:09:39;;;;;;;15.58;13.83;;;;;;;30.75;45.00;98894.72;529392;1093;116876;-70
2021/07/14 16:19:45;;;;;;;16.13;14.65;;;;;;;30.38;45.83;98925.80;530958;1093;117320;-69
2021/07/14 16:29:52;;;;;;;15.70;14.10;;;;;;;30.24;46.84;98938.83;529756;1092;117170;-67
2021/07/14 16:39:58;;;;;;;15.70;13.68;;;;;;;30.01;47.88;98946.00;530886;1093;116386;-69
2021/07/14 16:50:07;;;;;;;15.93;14.40;;;;;;;29.88;48.29;98941.70;530931;1093;116243;-69
2021/07/14 17:00:16;;;;;;;16.10;13.70;;;;;;;29.58;48.69;98950.05;530151;1091;116599;-69
2021/07/14 17:10:23;;;;;;;18.47;14.97;;;;;;;29.30;49.98;98921.84;530974;1092;117020;-71
2021/07/14 17:20:29;;;;;;;17.73;15.00;;;;;;;29.02;50.72;98926.13;530931;1093;118186;-69
2021/07/14 17:30:36;;;;;;;17.40;15.77;;;;;;;28.71;51.72;98888.41;530218;1092;117199;-73
2021/07/14 17:40:42;;;;;;;32.40;17.90;;;;;;;28.40;53.10;98906.58;514294;1092;116184;-59
2021/07/14 17:50:49;;;;;;;80.57;23.07;;;;;;;28.18;54.12;98925.20;530936;1092;117575;-65
2021/07/14 18:00:55;;;;;;;22.40;20.00;;;;;;;27.89;55.28;98930.34;531047;1092;116610;-58
2021/07/14 18:18:27;;;;;;;15.18;8.00;;;;;;;26.59;54.29;99055.73;508143;1090;10001548;-57
2021/07/14 18:28:32;;;;;;;;;;;;;;;24.75;56.10;99001.77;529995;1092;115936;-57
2021/07/14 18:38:38;;;;;;;24.57;7.50;;;;;;;24.09;58.15;98749.38;530119;1092;103098;-53
2021/07/14 18:48:44;;;;;;;20.93;7.27;;;;;;;23.51;59.65;98745.41;528883;1092;116132;-52
2021/07/14 18:58:51;;;;;;;17.97;8.90;;;;;;;23.41;61.11;98753.01;522007;1091;116803;-51
2021/07/14 19:08:57;;;;;;;18.27;9.63;;;;;;;23.34;63.44;98817.28;522266;1092;116250;-50
2021/07/14 19:19:04;;;;;;;23.57;9.23;;;;;;;23.43;64.20;98844.70;529876;1092;116731;-54
2021/07/14 19:29:12;;;;;;;19.60;11.03;;;;;;;23.66;65.31;98892.61;529855;1091;115873;-62
2021/07/14 19:39:17;;;;;;;;;;;;;;;23.73;65.75;99050.75;528990;1092;116185;-62
2021/07/14 19:49:24;;;;;;;15.30;5.73;;;;;;;22.92;65.43;99449.83;522234;1092;101600;-59
2021/07/14 19:59:30;;;;;;;6.53;2.70;;;;;;;18.29;71.79;99355.80;529865;1092;116532;-63
2021/07/14 20:09:37;;;;;;;13.00;2.43;;;;;;;17.83;75.02;99250.48;529010;1092;117090;-59
2021/07/14 20:19:43;;;;;;;6.00;2.80;;;;;;;17.82;76.35;99150.56;511942;1092;20001881;-60
2021/07/14 20:29:51;;;;;;;6.17;3.30;;;;;;;17.85;76.75;99146.77;529683;1091;115643;-59
2021/07/14 20:39:57;;;;;;;4.53;3.07;;;;;;;18.10;77.74;99056.61;529718;1092;116074;-60
2021/07/14 20:50:05;;;;;;;3.93;3.30;;;;;;;18.40;78.09;99018.00;529646;1092;118618;-60
2021/07/14 21:00:15;;;;;;;8.68;3.00;;;;;;;18.34;78.33;99016.01;530250;1093;117379;-59
2021/07/14 21:10:22;;;;;;;4.73;2.60;;;;;;;18.54;78.13;99043.12;530895;1092;116171;-60
2021/07/14 21:20:29;;;;;;;5.67;3.23;;;;;;;18.58;78.79;99040.97;530644;1093;116277;-61
2021/07/14 21:30:35;;;;;;;4.47;3.13;;;;;;;18.65;79.15;99026.03;530029;1093;116236;-61
2021/07/14 21:40:42;;;;;;;5.33;2.80;;;;;;;18.72;78.69;99035.00;527964;1092;117057;-58
2021/07/14 21:50:49;;;;;;;6.63;2.80;;;;;;;18.89;79.08;98995.13;530777;1093;116087;-58
2021/07/14 22:00:56;;;;;;;7.73;3.93;;;;;;;19.01;79.17;99027.55;530954;1092;116455;-59
2021/07/14 22:11:05;;;;;;;7.57;4.87;;;;;;;19.09;78.93;99128.66;523195;1093;116303;-58
2021/07/14 22:21:13;;;;;;;7.37;3.77;;;;;;;19.14;79.54;99211.47;512174;1092;116075;-59
2021/07/14 22:31:22;;;;;;;6.30;3.45;;;;;;;19.04;79.55;99323.38;512684;1092;116326;-58
2021/07/14 22:41:30;;;;;;;6.50;4.20;;;;;;;18.98;80.07;99214.08;512575;1091;115546;-60
2021/07/14 22:51:36;;;;;;;10.13;4.23;;;;;;;18.94;80.11;99016.72;519463;1093;116371;-59
2021/07/14 23:01:43;;;;;;;5.27;3.90;;;;;;;18.73;80.50;99035.84;516007;1093;116646;-59
2021/07/14 23:11:50;;;;;;;8.73;5.13;;;;;;;18.70;80.74;99060.92;530088;1092;116620;-64
2021/07/14 23:21:56;;;;;;;7.47;4.07;;;;;;;18.74;80.59;99096.82;530229;1093;116564;-65
2021/07/14 23:32:03;;;;;;;6.13;4.47;;;;;;;18.72;80.37;99101.47;522563;1092;117018;-63
2021/07/14 23:42:10;;;;;;;7.73;4.10;;;;;;;18.82;80.09;99073.91;512439;1093;116479;-60
2021/07/14 23:52:16;;;;;;;5.17;3.37;;;;;;;18.72;79.99;99084.70;530595;1093;115975;-61
